createdAt,value
2018-01-23T00:00:58.685Z,6.17
2018-01-23T00:01:58.603Z,6.15
2018-01-23T00:02:58.740Z,6.14
2018-01-23T00:03:58.589Z,6.15
2018-01-23T00:04:58.592Z,6.14
2018-01-23T00:05:58.955Z,6.14
2018-01-23T00:06:58.734Z,6.13
2018-01-23T00:07:58.649Z,6.13
2018-01-23T00:08:58.704Z,6.12
2018-01-23T00:09:58.630Z,6.11
2018-01-23T00:10:58.649Z,6.1
2018-01-23T00:11:58.728Z,6.1
2018-01-23T00:12:58.877Z,6.1
2018-01-23T00:13:59.236Z,6.09
2018-01-23T00:14:58.641Z,6.08
2018-01-23T00:15:58.698Z,6.07
2018-01-23T00:16:58.670Z,6.08
2018-01-23T00:17:58.632Z,6.07
2018-01-23T00:18:58.691Z,6.07
2018-01-23T00:19:59.184Z,6.06
2018-01-23T00:20:58.785Z,6.06
2018-01-23T00:21:58.662Z,6.05
2018-01-23T00:22:58.665Z,6.05
2018-01-23T00:23:58.762Z,6.05
2018-01-23T00:24:58.627Z,6.05
2018-01-23T00:25:58.642Z,6.05
2018-01-23T00:26:58.726Z,6.06
2018-01-23T00:27:58.651Z,6.07
2018-01-23T00:28:58.640Z,6.08
2018-01-23T00:29:59.533Z,6.09
2018-01-23T00:30:58.638Z,6.12
2018-01-23T00:31:58.684Z,6.14
2018-01-23T00:32:58.941Z,6.14
2018-01-23T00:33:58.627Z,6.15
2018-01-23T00:34:58.645Z,6.16
2018-01-23T00:35:58.702Z,6.18
2018-01-23T00:36:59.529Z,6.19
2018-01-23T00:37:58.887Z,6.21
2018-01-23T00:38:58.867Z,6.24
2018-01-23T00:39:58.705Z,6.24
2018-01-23T00:40:59.212Z,6.25
2018-01-23T00:41:58.687Z,6.27
2018-01-23T00:42:58.677Z,6.28
2018-01-23T00:43:58.825Z,6.27
2018-01-23T00:44:58.690Z,6.28
2018-01-23T00:45:58.715Z,6.31
2018-01-23T00:46:59.449Z,6.3
2018-01-23T00:47:58.752Z,6.3
2018-01-23T00:48:58.660Z,6.31
2018-01-23T00:49:58.741Z,6.31
2018-01-23T00:50:58.685Z,6.3
2018-01-23T00:51:58.714Z,6.31
2018-01-23T00:52:59.243Z,6.31
2018-01-23T00:53:58.715Z,6.29
2018-01-23T00:54:58.657Z,6.32
2018-01-23T00:55:58.665Z,6.33
2018-01-23T00:56:58.759Z,6.3
2018-01-23T00:57:59.855Z,6.29
2018-01-23T00:58:58.670Z,6.28
2018-01-23T00:59:58.768Z,6.27
2018-01-23T01:00:59.533Z,6.27
2018-01-23T01:01:58.881Z,6.26
2018-01-23T01:02:58.724Z,6.25
2018-01-23T01:03:58.731Z,6.25
2018-01-23T01:04:58.657Z,6.25
2018-01-23T01:05:58.694Z,6.25
2018-01-23T01:06:59.515Z,6.24
2018-01-23T01:07:58.735Z,6.24
2018-01-23T01:08:58.877Z,6.25
2018-01-23T01:09:58.695Z,6.24
2018-01-23T01:10:58.740Z,6.26
2018-01-23T01:11:58.928Z,6.25
2018-01-23T01:12:58.721Z,6.24
2018-01-23T01:13:58.903Z,6.25
2018-01-23T01:14:58.848Z,6.25
2018-01-23T01:15:58.746Z,6.26
2018-01-23T01:16:58.683Z,6.26
2018-01-23T01:17:58.993Z,6.26
2018-01-23T01:18:58.822Z,6.27
2018-01-23T01:19:58.750Z,6.29
2018-01-23T01:20:58.837Z,6.27
2018-01-23T01:21:58.744Z,6.27
2018-01-23T01:22:58.747Z,6.26
2018-01-23T01:23:58.803Z,6.27
2018-01-23T01:24:58.719Z,6.28
2018-01-23T01:25:58.743Z,6.3
2018-01-23T01:26:58.725Z,6.29
2018-01-23T01:27:58.822Z,6.29
2018-01-23T01:28:58.776Z,6.28
2018-01-23T01:29:59.587Z,6.28
2018-01-23T01:30:59.446Z,6.27
2018-01-23T01:31:58.717Z,6.28
2018-01-23T01:32:59.553Z,6.27
2018-01-23T01:33:58.809Z,6.27
2018-01-23T01:34:58.714Z,6.24
2018-01-23T01:35:58.753Z,6.25
2018-01-23T01:36:58.833Z,6.25
2018-01-23T01:37:58.774Z,6.24
2018-01-23T01:38:58.797Z,6.23
2018-01-23T01:39:58.768Z,6.23
2018-01-23T01:40:58.828Z,6.23
2018-01-23T01:41:59.582Z,6.22
2018-01-23T01:42:58.825Z,6.23
2018-01-23T01:43:58.804Z,6.23
2018-01-23T01:44:58.914Z,6.22
2018-01-23T01:45:58.779Z,6.23
2018-01-23T01:46:58.952Z,6.25
2018-01-23T01:47:58.890Z,6.23
2018-01-23T01:48:59.150Z,6.25
2018-01-23T01:50:00.622Z,6.26
2018-01-23T01:50:58.759Z,6.25
2018-01-23T01:51:59.456Z,6.27
2018-01-23T01:52:58.815Z,6.28
2018-01-23T01:53:58.924Z,6.27
2018-01-23T01:54:58.779Z,6.28
2018-01-23T01:55:58.814Z,6.28
2018-01-23T01:56:58.830Z,6.27
2018-01-23T01:57:58.788Z,6.28
2018-01-23T01:58:59.413Z,6.26
2018-01-23T01:59:58.798Z,6.28
2018-01-23T02:00:58.809Z,6.28
2018-01-23T02:01:58.783Z,6.28
2018-01-23T02:02:59.033Z,6.31
2018-01-23T02:03:59.104Z,6.3
2018-01-23T02:04:58.782Z,6.3
2018-01-23T02:05:58.828Z,6.29
2018-01-23T02:06:58.833Z,6.28
2018-01-23T02:07:58.837Z,6.3
2018-01-23T02:08:58.846Z,6.28
2018-01-23T02:09:58.898Z,6.29
2018-01-23T02:10:59.629Z,6.29
2018-01-23T02:11:58.966Z,6.28
2018-01-23T02:12:58.830Z,6.29
2018-01-23T02:13:58.772Z,6.3
2018-01-23T02:14:58.842Z,6.3
2018-01-23T02:15:59.651Z,6.3
2018-01-23T02:16:58.786Z,6.29
2018-01-23T02:17:58.950Z,6.28
2018-01-23T02:18:59.505Z,6.28
2018-01-23T02:19:58.848Z,6.27
2018-01-23T02:20:58.894Z,6.27
2018-01-23T02:21:58.809Z,6.26
2018-01-23T02:22:58.812Z,6.25
2018-01-23T02:23:58.786Z,6.26
2018-01-23T02:24:59.688Z,6.24
2018-01-23T02:25:59.503Z,6.23
2018-01-23T02:26:58.946Z,6.23
2018-01-23T02:27:58.872Z,6.23
2018-01-23T02:28:58.824Z,6.22
2018-01-23T02:29:58.816Z,6.22
2018-01-23T02:30:58.895Z,6.21
2018-01-23T02:31:59.006Z,6.21
2018-01-23T02:32:58.793Z,6.2
2018-01-23T02:33:58.933Z,6.21
2018-01-23T02:34:58.781Z,6.21
2018-01-23T02:35:58.884Z,6.21
2018-01-23T02:36:58.909Z,6.22
2018-01-23T02:37:59.833Z,6.21
2018-01-23T02:38:59.063Z,6.2
2018-01-23T02:39:58.873Z,6.19
2018-01-23T02:40:58.902Z,6.19
2018-01-23T02:41:58.931Z,6.18
2018-01-23T02:42:59.710Z,6.17
2018-01-23T02:43:58.887Z,6.15
2018-01-23T02:44:58.859Z,6.15
2018-01-23T02:45:58.889Z,6.14
2018-01-23T02:46:58.881Z,6.14
2018-01-23T02:47:58.993Z,6.13
2018-01-23T02:48:58.957Z,6.12
2018-01-23T02:49:58.881Z,6.12
2018-01-23T02:50:59.088Z,6.11
2018-01-23T02:51:59.916Z,6.09
2018-01-23T02:52:58.921Z,6.09
2018-01-23T02:53:58.934Z,6.08
2018-01-23T02:54:58.880Z,6.08
2018-01-23T02:55:58.957Z,6.08
2018-01-23T02:56:58.873Z,6.07
2018-01-23T02:57:59.432Z,6.08
2018-01-23T02:58:58.873Z,6.08
2018-01-23T02:59:58.943Z,6.09
2018-01-23T03:00:59.853Z,6.09
2018-01-23T03:01:58.886Z,6.11
2018-01-23T03:02:58.931Z,6.1
2018-01-23T03:03:58.905Z,6.11
2018-01-23T03:04:58.903Z,6.11
2018-01-23T03:05:58.852Z,6.11
2018-01-23T03:06:58.959Z,6.11
2018-01-23T03:07:59.027Z,6.1
2018-01-23T03:08:58.929Z,6.1
2018-01-23T03:09:58.925Z,6.1
2018-01-23T03:10:58.971Z,6.1
2018-01-23T03:11:58.903Z,6.11
2018-01-23T03:12:59.151Z,6.09
2018-01-23T03:13:59.324Z,6.07
2018-01-23T03:14:58.878Z,6.07
2018-01-23T03:15:59.645Z,6.08
2018-01-23T03:16:59.661Z,6.08
2018-01-23T03:17:58.980Z,6.09
2018-01-23T03:18:58.900Z,6.08
2018-01-23T03:19:58.903Z,6.09
2018-01-23T03:20:58.931Z,6.09
2018-01-23T03:21:58.889Z,6.07
2018-01-23T03:23:00.143Z,6.07
2018-01-23T03:23:59.017Z,6.1
2018-01-23T03:24:58.920Z,6.07
2018-01-23T03:25:58.918Z,6.06
2018-01-23T03:26:58.928Z,6.07
2018-01-23T03:28:00.017Z,6.07
2018-01-23T03:28:58.906Z,6.07
2018-01-23T03:29:58.981Z,6.06
2018-01-23T03:30:58.950Z,6.06
2018-01-23T03:31:58.925Z,6.05
2018-01-23T03:32:58.942Z,6.06
2018-01-23T03:33:58.903Z,6.06
2018-01-23T03:34:59.080Z,6.05
2018-01-23T03:35:58.942Z,6.06
2018-01-23T03:36:59.076Z,6.07
2018-01-23T03:37:59.183Z,6.08
2018-01-23T03:38:59.710Z,6.06
2018-01-23T03:39:58.959Z,6.07
2018-01-23T03:40:59.999Z,6.08
2018-01-23T03:41:59.773Z,6.08
2018-01-23T03:42:59.234Z,6.07
2018-01-23T03:43:58.955Z,6.07
2018-01-23T03:44:58.991Z,6.06
2018-01-23T03:45:59.013Z,6.07
2018-01-23T03:46:58.966Z,6.07
2018-01-23T03:47:58.982Z,6.07
2018-01-23T03:48:58.919Z,6.06
2018-01-23T03:49:59.052Z,6.06
2018-01-23T03:50:58.932Z,6.06
2018-01-23T03:51:59.278Z,6.06
2018-01-23T03:52:59.006Z,6.08
2018-01-23T03:53:59.931Z,6.08
2018-01-23T03:54:59.038Z,6.09
2018-01-23T03:55:58.934Z,6.09
2018-01-23T03:56:58.969Z,6.09
2018-01-23T03:57:58.981Z,6.09
2018-01-23T03:58:59.012Z,6.09
2018-01-23T03:59:58.940Z,6.08
2018-01-23T04:00:59.207Z,6.07
2018-01-23T04:01:59.792Z,6.07
2018-01-23T04:02:58.899Z,6.08
2018-01-23T04:03:58.944Z,6.07
2018-01-23T04:04:59.605Z,6.06
2018-01-23T04:05:59.571Z,6.07
2018-01-23T04:06:59.008Z,6.07
2018-01-23T04:07:59.061Z,6.09
2018-01-23T04:08:59.158Z,6.08
2018-01-23T04:09:59.045Z,6.08
2018-01-23T04:10:59.052Z,6.07
2018-01-23T04:11:59.229Z,6.07
2018-01-23T04:12:59.025Z,6.08
2018-01-23T04:13:58.991Z,6.07
2018-01-23T04:14:59.075Z,6.06
2018-01-23T04:15:59.219Z,6.07
2018-01-23T04:16:59.063Z,6.06
2018-01-23T04:17:59.310Z,6.06
2018-01-23T04:18:59.182Z,6.04
2018-01-23T04:19:59.015Z,6.04
2018-01-23T04:20:59.099Z,6.05
2018-01-23T04:21:59.749Z,6.05
2018-01-23T04:22:59.004Z,6.06
2018-01-23T04:23:58.982Z,6.05
2018-01-23T04:24:59.560Z,6.05
2018-01-23T04:25:58.973Z,6.05
2018-01-23T04:26:59.020Z,6.04
2018-01-23T04:27:59.088Z,6.03
2018-01-23T04:28:59.032Z,6.03
2018-01-23T04:29:58.999Z,6.04
2018-01-23T04:30:59.020Z,6.03
2018-01-23T04:31:59.752Z,6.05
2018-01-23T04:32:59.065Z,6.05
2018-01-23T04:33:59.033Z,6.06
2018-01-23T04:34:59.672Z,6.05
2018-01-23T04:35:58.972Z,6.05
2018-01-23T04:36:59.084Z,6.05
2018-01-23T04:37:59.045Z,6.05
2018-01-23T04:38:59.037Z,6.05
2018-01-23T04:39:59.036Z,6.05
2018-01-23T04:40:59.099Z,6.05
2018-01-23T04:41:59.012Z,6.04
2018-01-23T04:42:59.996Z,6.05
2018-01-23T04:43:59.251Z,6.03
2018-01-23T04:44:59.084Z,6.03
2018-01-23T04:45:59.066Z,6.04
2018-01-23T04:46:59.687Z,6.05
2018-01-23T04:47:59.013Z,6.04
2018-01-23T04:48:59.007Z,6.03
2018-01-23T04:49:59.025Z,6.02
2018-01-23T04:50:59.188Z,6.01
2018-01-23T04:51:59.033Z,6.01
2018-01-23T04:53:00.115Z,6.01
2018-01-23T04:53:59.196Z,6.01
2018-01-23T04:54:59.404Z,6.01
2018-01-23T04:55:59.038Z,6
2018-01-23T04:56:59.067Z,6
2018-01-23T04:57:59.015Z,6
2018-01-23T04:58:59.721Z,6
2018-01-23T04:59:59.023Z,5.99
2018-01-23T05:00:59.032Z,6
2018-01-23T05:01:59.038Z,6
2018-01-23T05:02:59.119Z,6
2018-01-23T05:03:59.017Z,6
2018-01-23T05:04:59.064Z,6
2018-01-23T05:05:59.037Z,5.99
2018-01-23T05:06:59.177Z,5.99
2018-01-23T05:07:59.078Z,5.99
2018-01-23T05:08:59.648Z,5.98
2018-01-23T05:09:59.064Z,5.97
2018-01-23T05:10:59.147Z,5.97
2018-01-23T05:11:59.097Z,5.97
2018-01-23T05:12:59.230Z,5.96
2018-01-23T05:13:59.223Z,5.96
2018-01-23T05:14:59.383Z,5.96
2018-01-23T05:15:59.069Z,5.97
2018-01-23T05:16:59.875Z,5.96
2018-01-23T05:17:59.114Z,5.97
2018-01-23T05:18:59.086Z,5.96
2018-01-23T05:20:00.069Z,5.97
2018-01-23T05:20:59.052Z,5.97
2018-01-23T05:21:59.073Z,5.97
2018-01-23T05:22:59.293Z,5.97
2018-01-23T05:23:59.114Z,5.98
2018-01-23T05:24:59.059Z,5.97
2018-01-23T05:25:59.060Z,5.96
2018-01-23T05:26:59.075Z,5.96
2018-01-23T05:27:59.157Z,5.96
2018-01-23T05:28:59.105Z,5.96
2018-01-23T05:29:59.847Z,5.97
2018-01-23T05:30:59.128Z,5.96
2018-01-23T05:31:59.053Z,5.96
2018-01-23T05:32:59.078Z,5.95
2018-01-23T05:33:59.331Z,5.97
2018-01-23T05:34:59.071Z,5.97
2018-01-23T05:35:59.131Z,5.95
2018-01-23T05:36:59.204Z,5.95
2018-01-23T05:37:59.127Z,5.95
2018-01-23T05:38:59.228Z,5.94
2018-01-23T05:39:59.193Z,5.94
2018-01-23T05:40:59.105Z,5.94
2018-01-23T05:41:59.157Z,5.94
2018-01-23T05:42:59.345Z,5.92
2018-01-23T05:43:59.106Z,5.92
2018-01-23T05:44:59.353Z,5.92
2018-01-23T05:45:59.178Z,5.91
2018-01-23T05:47:00.065Z,5.92
2018-01-23T05:47:59.123Z,5.91
2018-01-23T05:48:59.130Z,5.91
2018-01-23T05:49:59.222Z,5.9
2018-01-23T05:50:59.188Z,5.9
2018-01-23T05:51:59.111Z,5.89
2018-01-23T05:52:59.197Z,5.89
2018-01-23T05:53:59.113Z,5.89
2018-01-23T05:54:59.143Z,5.88
2018-01-23T05:55:59.262Z,5.89
2018-01-23T05:56:59.150Z,5.88
2018-01-23T05:57:59.209Z,5.9
2018-01-23T05:58:59.177Z,5.89
2018-01-23T05:59:59.140Z,5.9
2018-01-23T06:00:59.185Z,5.91
2018-01-23T06:01:59.194Z,5.92
2018-01-23T06:02:59.252Z,5.91
2018-01-23T06:03:59.849Z,5.91
2018-01-23T06:04:59.411Z,5.92
2018-01-23T06:05:59.149Z,5.91
2018-01-23T06:06:59.380Z,5.92
2018-01-23T06:07:59.303Z,5.93
2018-01-23T06:08:59.215Z,5.93
2018-01-23T06:09:59.207Z,5.93
2018-01-23T06:10:59.228Z,5.94
2018-01-23T06:11:59.214Z,5.96
2018-01-23T06:12:59.282Z,5.96
2018-01-23T06:13:59.394Z,5.97
2018-01-23T06:14:59.220Z,6
2018-01-23T06:15:59.281Z,6.01
2018-01-23T06:16:59.276Z,6.01
2018-01-23T06:17:59.257Z,6
2018-01-23T06:18:59.264Z,6.01
2018-01-23T06:19:59.827Z,6
2018-01-23T06:21:01.013Z,6
2018-01-23T06:21:59.352Z,6
2018-01-23T06:22:59.304Z,5.99
2018-01-23T06:23:59.230Z,5.99
2018-01-23T06:25:00.535Z,5.99
2018-01-23T06:25:59.295Z,5.98
2018-01-23T06:26:59.218Z,5.98
2018-01-23T06:27:59.249Z,5.98
2018-01-23T06:28:59.800Z,5.97
2018-01-23T06:29:59.282Z,5.97
2018-01-23T06:30:59.227Z,5.95
2018-01-23T06:31:59.234Z,5.95
2018-01-23T06:32:59.257Z,5.94
2018-01-23T06:33:59.249Z,5.94
2018-01-23T06:35:00.131Z,5.95
2018-01-23T06:35:59.262Z,5.94
2018-01-23T06:37:00.003Z,5.93
2018-01-23T06:37:59.313Z,5.92
2018-01-23T06:38:59.299Z,5.91
2018-01-23T06:39:59.339Z,5.92
2018-01-23T06:40:59.253Z,5.9
2018-01-23T06:41:59.260Z,5.91
2018-01-23T06:42:59.248Z,5.91
2018-01-23T06:43:59.257Z,5.9
2018-01-23T06:44:59.330Z,5.89
2018-01-23T06:45:59.272Z,5.89
2018-01-23T06:46:59.250Z,5.89
2018-01-23T06:47:59.275Z,5.88
2018-01-23T06:48:59.276Z,5.88
2018-01-23T06:49:59.604Z,5.87
2018-01-23T06:50:59.295Z,5.87
2018-01-23T06:51:59.501Z,5.87
2018-01-23T06:52:59.228Z,5.86
2018-01-23T06:53:59.263Z,5.86
2018-01-23T06:54:59.639Z,5.85
2018-01-23T06:55:59.299Z,5.85
2018-01-23T06:56:59.272Z,5.84
2018-01-23T06:57:59.308Z,5.84
2018-01-23T06:58:59.316Z,5.83
2018-01-23T06:59:59.235Z,5.83
2018-01-23T07:00:59.269Z,5.83
2018-01-23T07:01:59.301Z,5.83
2018-01-23T07:02:59.239Z,5.83
2018-01-23T07:03:59.508Z,5.82
2018-01-23T07:04:59.272Z,5.82
2018-01-23T07:05:59.282Z,5.83
2018-01-23T07:06:59.371Z,5.82
2018-01-23T07:07:59.303Z,5.81
2018-01-23T07:08:59.963Z,5.81
2018-01-23T07:09:59.584Z,5.81
2018-01-23T07:10:59.470Z,5.8
2018-01-23T07:11:59.490Z,5.81
2018-01-23T07:12:59.291Z,5.81
2018-01-23T07:13:59.736Z,5.81
2018-01-23T07:14:59.347Z,5.8
2018-01-23T07:15:59.309Z,5.8
2018-01-23T07:16:59.349Z,5.8
2018-01-23T07:17:59.394Z,5.8
2018-01-23T07:18:59.712Z,5.8
2018-01-23T07:19:59.396Z,5.8
2018-01-23T07:20:59.338Z,5.8
2018-01-23T07:21:59.306Z,5.79
2018-01-23T07:22:59.284Z,5.79
2018-01-23T07:23:59.978Z,5.8
2018-01-23T07:24:59.327Z,5.78
2018-01-23T07:25:59.409Z,5.78
2018-01-23T07:26:59.285Z,5.79
2018-01-23T07:27:59.265Z,5.78
2018-01-23T07:28:59.373Z,5.78
2018-01-23T07:30:00.484Z,5.78
2018-01-23T07:30:59.405Z,5.78
2018-01-23T07:32:00.510Z,5.77
2018-01-23T07:32:59.277Z,5.77
2018-01-23T07:33:59.282Z,5.77
2018-01-23T07:34:59.316Z,5.77
2018-01-23T07:35:59.400Z,5.77
2018-01-23T07:36:59.847Z,5.77
2018-01-23T07:37:58.759Z,5.77
2018-01-23T07:38:58.792Z,5.77
2018-01-23T07:39:58.801Z,5.76
2018-01-23T07:40:58.817Z,5.76
2018-01-23T07:41:58.985Z,5.77
2018-01-23T07:42:58.785Z,5.76
2018-01-23T07:43:58.822Z,5.77
2018-01-23T07:44:58.773Z,5.77
2018-01-23T07:45:58.786Z,5.77
2018-01-23T07:46:58.847Z,5.78
2018-01-23T07:47:58.783Z,5.78
2018-01-23T07:48:58.772Z,5.78
2018-01-23T07:49:58.764Z,5.77
2018-01-23T07:50:58.785Z,5.77
2018-01-23T07:51:58.805Z,5.78
2018-01-23T07:52:58.802Z,5.78
2018-01-23T07:53:58.749Z,5.78
2018-01-23T07:54:58.801Z,5.78
2018-01-23T07:55:58.788Z,5.78
2018-01-23T07:56:58.788Z,5.79
2018-01-23T07:57:58.885Z,5.77
2018-01-23T07:58:58.804Z,5.79
2018-01-23T07:59:58.769Z,5.79
2018-01-23T08:00:58.788Z,5.8
2018-01-23T08:01:58.799Z,5.79
2018-01-23T08:02:59.040Z,5.79
2018-01-23T08:03:58.774Z,5.8
2018-01-23T08:04:58.767Z,5.81
2018-01-23T08:05:58.787Z,5.8
2018-01-23T08:06:58.822Z,5.8
2018-01-23T08:07:59.137Z,5.8
2018-01-23T08:08:58.909Z,5.81
2018-01-23T08:09:58.878Z,5.8
2018-01-23T08:10:58.975Z,5.81
2018-01-23T08:11:58.956Z,5.8
2018-01-23T08:12:58.988Z,5.81
2018-01-23T08:13:58.934Z,5.81
2018-01-23T08:14:58.987Z,5.81
2018-01-23T08:15:58.941Z,5.81
2018-01-23T08:16:58.923Z,5.81
2018-01-23T08:17:58.904Z,5.81
2018-01-23T08:18:58.852Z,5.82
2018-01-23T08:19:58.924Z,5.82
2018-01-23T08:20:58.879Z,5.82
2018-01-23T08:21:58.873Z,5.82
2018-01-23T08:22:58.887Z,5.82
2018-01-23T08:23:58.902Z,5.82
2018-01-23T08:24:59.034Z,5.81
2018-01-23T08:25:58.885Z,5.82
2018-01-23T08:26:58.892Z,5.83
2018-01-23T08:27:58.883Z,5.83
2018-01-23T08:28:58.892Z,5.83
2018-01-23T08:29:59.538Z,5.83
2018-01-23T08:30:58.928Z,5.85
2018-01-23T08:31:58.896Z,5.84
2018-01-23T08:32:58.934Z,5.85
2018-01-23T08:33:58.927Z,5.86
2018-01-23T08:34:58.985Z,5.85
2018-01-23T08:35:58.896Z,5.87
2018-01-23T08:36:59.471Z,5.88
2018-01-23T08:38:00.195Z,5.89
2018-01-23T08:38:59.006Z,5.89
2018-01-23T08:39:59.011Z,5.89
2018-01-23T08:40:59.002Z,5.9
2018-01-23T08:41:58.961Z,5.91
2018-01-23T08:42:58.923Z,5.91
2018-01-23T08:43:58.985Z,5.91
2018-01-23T08:44:58.964Z,5.93
2018-01-23T08:45:58.945Z,5.93
2018-01-23T08:46:58.945Z,5.94
2018-01-23T08:47:58.951Z,5.94
2018-01-23T08:48:58.936Z,5.95
2018-01-23T08:49:58.966Z,5.97
2018-01-23T08:50:59.014Z,5.97
2018-01-23T08:51:59.014Z,5.98
2018-01-23T08:52:58.953Z,5.99
2018-01-23T08:53:58.971Z,5.99
2018-01-23T08:54:58.920Z,6
2018-01-23T08:55:58.975Z,6.02
2018-01-23T08:56:58.994Z,6.02
2018-01-23T08:57:58.948Z,6.03
2018-01-23T08:58:58.995Z,6.03
2018-01-23T08:59:58.962Z,6.04
2018-01-23T09:00:58.969Z,6.03
2018-01-23T09:01:59.028Z,6.05
2018-01-23T09:02:58.940Z,6.05
2018-01-23T09:03:58.983Z,6.05
2018-01-23T09:04:58.957Z,6.06
2018-01-23T09:05:58.960Z,6.06
2018-01-23T09:06:58.959Z,6.07
2018-01-23T09:07:59.046Z,6.08
2018-01-23T09:08:59.063Z,6.09
2018-01-23T09:09:58.981Z,6.11
2018-01-23T09:10:59.002Z,6.11
2018-01-23T09:11:58.995Z,6.12
2018-01-23T09:12:59.008Z,6.12
2018-01-23T09:13:59.048Z,6.11
2018-01-23T09:14:59.026Z,6.12
2018-01-23T09:15:59.001Z,6.13
2018-01-23T09:16:59.014Z,6.14
2018-01-23T09:17:58.989Z,6.14
2018-01-23T09:18:59.351Z,6.15
2018-01-23T09:19:59.035Z,6.16
2018-01-23T09:20:59.012Z,6.16
2018-01-23T09:21:58.984Z,6.16
2018-01-23T09:22:59.001Z,6.17
2018-01-23T09:23:59.065Z,6.18
2018-01-23T09:24:59.064Z,6.2
2018-01-23T09:25:58.998Z,6.2
2018-01-23T09:26:59.004Z,6.21
2018-01-23T09:27:59.001Z,6.21
2018-01-23T09:28:59.009Z,6.22
2018-01-23T09:29:59.098Z,6.22
2018-01-23T09:30:59.003Z,6.21
2018-01-23T09:31:59.000Z,6.22
2018-01-23T09:32:59.632Z,6.22
2018-01-23T09:33:58.999Z,6.23
2018-01-23T09:34:58.981Z,6.23
2018-01-23T09:35:59.001Z,6.23
2018-01-23T09:36:59.016Z,6.22
2018-01-23T09:37:59.096Z,6.23
2018-01-23T09:38:59.114Z,6.23
2018-01-23T09:39:59.061Z,6.23
2018-01-23T09:40:59.088Z,6.23
2018-01-23T09:41:59.066Z,6.23
2018-01-23T09:42:59.077Z,6.24
2018-01-23T09:43:59.086Z,6.24
2018-01-23T09:44:59.094Z,6.27
2018-01-23T09:45:59.080Z,6.28
2018-01-23T09:46:59.055Z,6.28
2018-01-23T09:47:59.042Z,6.28
2018-01-23T09:48:59.375Z,6.28
2018-01-23T09:49:59.060Z,6.27
2018-01-23T09:50:59.064Z,6.26
2018-01-23T09:51:59.368Z,6.26
2018-01-23T09:52:59.629Z,6.26
2018-01-23T09:53:59.053Z,6.27
2018-01-23T09:54:59.056Z,6.28
2018-01-23T09:55:59.101Z,6.28
2018-01-23T09:56:59.618Z,6.29
2018-01-23T09:57:59.105Z,6.28
2018-01-23T09:58:59.069Z,6.29
2018-01-23T09:59:59.053Z,6.29
2018-01-23T10:00:59.059Z,6.3
2018-01-23T10:01:59.173Z,6.3
2018-01-23T10:02:59.315Z,6.31
2018-01-23T10:03:59.079Z,6.32
2018-01-23T10:04:59.086Z,6.32
2018-01-23T10:05:59.078Z,6.32
2018-01-23T10:06:59.063Z,6.33
2018-01-23T10:07:59.184Z,6.35
2018-01-23T10:08:59.394Z,6.34
2018-01-23T10:09:59.103Z,6.35
2018-01-23T10:10:59.100Z,6.37
2018-01-23T10:11:59.108Z,6.38
2018-01-23T10:12:59.142Z,6.38
2018-01-23T10:13:59.161Z,6.39
2018-01-23T10:14:59.154Z,6.4
2018-01-23T10:15:59.186Z,6.41
2018-01-23T10:16:59.110Z,6.41
2018-01-23T10:17:59.142Z,6.43
2018-01-23T10:18:59.097Z,6.44
2018-01-23T10:19:59.109Z,6.44
2018-01-23T10:20:59.491Z,6.45
2018-01-23T10:21:59.114Z,6.46
2018-01-23T10:22:59.128Z,6.47
2018-01-23T10:23:59.114Z,6.48
2018-01-23T10:24:59.135Z,6.5
2018-01-23T10:25:59.145Z,6.51
2018-01-23T10:26:59.152Z,6.53
2018-01-23T10:27:59.191Z,6.53
2018-01-23T10:28:59.109Z,6.54
2018-01-23T10:29:59.117Z,6.55
2018-01-23T10:30:59.138Z,6.56
2018-01-23T10:31:59.141Z,6.57
2018-01-23T10:32:59.137Z,6.58
2018-01-23T10:33:59.121Z,6.59
2018-01-23T10:34:59.129Z,6.6
2018-01-23T10:35:59.087Z,6.62
2018-01-23T10:36:59.109Z,6.62
2018-01-23T10:37:59.309Z,6.63
2018-01-23T10:38:59.151Z,6.63
2018-01-23T10:39:59.157Z,6.66
2018-01-23T10:40:59.611Z,6.65
2018-01-23T10:41:59.148Z,6.65
2018-01-23T10:42:59.158Z,6.66
2018-01-23T10:43:59.227Z,6.68
2018-01-23T10:44:59.170Z,6.7
2018-01-23T10:45:59.146Z,6.7
2018-01-23T10:46:59.129Z,6.69
2018-01-23T10:47:59.162Z,6.7
2018-01-23T10:48:59.431Z,6.7
2018-01-23T10:49:59.157Z,6.7
2018-01-23T10:50:59.154Z,6.71
2018-01-23T10:51:59.152Z,6.73
2018-01-23T10:52:59.151Z,6.73
2018-01-23T10:53:59.200Z,6.75
2018-01-23T10:54:59.194Z,6.76
2018-01-23T10:55:59.178Z,6.76
2018-01-23T10:56:59.142Z,6.77
2018-01-23T10:57:59.160Z,6.8
2018-01-23T10:58:59.175Z,6.79
2018-01-23T10:59:59.229Z,6.8
2018-01-23T11:00:59.269Z,6.8
2018-01-23T11:01:59.218Z,6.82
2018-01-23T11:02:59.163Z,6.83
2018-01-23T11:03:59.166Z,6.83
2018-01-23T11:04:59.138Z,6.84
2018-01-23T11:05:59.178Z,6.86
2018-01-23T11:06:59.230Z,6.88
2018-01-23T11:07:59.334Z,6.88
2018-01-23T11:08:59.365Z,6.88
2018-01-23T11:09:59.317Z,6.9
2018-01-23T11:10:59.315Z,6.9
2018-01-23T11:11:59.353Z,6.92
2018-01-23T11:12:59.384Z,6.93
2018-01-23T11:13:59.313Z,6.94
2018-01-23T11:14:59.333Z,6.96
2018-01-23T11:15:59.328Z,6.97
2018-01-23T11:16:59.317Z,6.99
2018-01-23T11:17:59.388Z,6.99
2018-01-23T11:18:59.330Z,7.01
2018-01-23T11:19:59.314Z,7.03
2018-01-23T11:20:59.328Z,7.03
2018-01-23T11:21:59.338Z,7.05
2018-01-23T11:23:00.082Z,7.05
2018-01-23T11:23:59.340Z,7.05
2018-01-23T11:24:59.347Z,7.07
2018-01-23T11:25:59.318Z,7.09
2018-01-23T11:26:59.296Z,7.1
2018-01-23T11:27:59.322Z,7.1
2018-01-23T11:28:59.337Z,7.12
2018-01-23T11:29:59.347Z,7.12
2018-01-23T11:30:59.312Z,7.13
2018-01-23T11:31:59.312Z,7.13
2018-01-23T11:32:59.308Z,7.14
2018-01-23T11:33:59.337Z,7.16
2018-01-23T11:34:59.344Z,7.15
2018-01-23T11:35:59.321Z,7.16
2018-01-23T11:36:59.317Z,7.21
2018-01-23T11:37:59.370Z,7.22
2018-01-23T11:38:59.381Z,7.23
2018-01-23T11:39:59.670Z,7.23
2018-01-23T11:40:59.373Z,7.23
2018-01-23T11:41:59.361Z,7.25
2018-01-23T11:42:59.369Z,7.25
2018-01-23T11:43:59.364Z,7.27
2018-01-23T11:44:59.426Z,7.27
2018-01-23T11:45:59.477Z,7.26
2018-01-23T11:46:59.370Z,7.29
2018-01-23T11:47:59.377Z,7.29
2018-01-23T11:48:59.408Z,7.29
2018-01-23T11:49:59.367Z,7.31
2018-01-23T11:50:59.385Z,7.3
2018-01-23T11:51:59.372Z,7.33
2018-01-23T11:52:59.361Z,7.33
2018-01-23T11:53:59.395Z,7.35
2018-01-23T11:54:59.439Z,7.35
2018-01-23T11:55:59.382Z,7.36
2018-01-23T11:56:59.359Z,7.36
2018-01-23T11:57:59.359Z,7.37
2018-01-23T11:58:59.348Z,7.37
2018-01-23T11:59:59.389Z,7.37
2018-01-23T12:00:59.362Z,7.37
2018-01-23T12:01:59.493Z,7.37
2018-01-23T12:02:59.363Z,7.37
2018-01-23T12:03:59.350Z,7.38
2018-01-23T12:04:59.383Z,7.38
2018-01-23T12:05:59.399Z,7.37
2018-01-23T12:06:59.405Z,7.38
2018-01-23T12:07:59.439Z,7.38
2018-01-23T12:08:58.483Z,7.38
2018-01-23T12:09:58.441Z,7.39
2018-01-23T12:10:58.452Z,7.41
2018-01-23T12:11:58.445Z,7.39
2018-01-23T12:12:58.451Z,7.39
2018-01-23T12:13:58.489Z,7.4
2018-01-23T12:14:58.424Z,7.4
2018-01-23T12:15:58.441Z,7.4
2018-01-23T12:16:58.395Z,7.41
2018-01-23T12:17:58.456Z,7.41
2018-01-23T12:18:58.509Z,7.41
2018-01-23T12:19:58.412Z,7.43
2018-01-23T12:20:58.416Z,7.44
2018-01-23T12:21:58.417Z,7.44
2018-01-23T12:22:58.415Z,7.43
2018-01-23T12:23:59.558Z,7.43
2018-01-23T12:24:58.429Z,7.44
2018-01-23T12:25:58.408Z,7.43
2018-01-23T12:26:58.413Z,7.44
2018-01-23T12:27:58.455Z,7.44
2018-01-23T12:28:58.425Z,7.43
2018-01-23T12:29:58.462Z,7.43
2018-01-23T12:30:58.440Z,7.44
2018-01-23T12:31:58.415Z,7.46
2018-01-23T12:32:58.432Z,7.44
2018-01-23T12:33:58.719Z,7.44
2018-01-23T12:34:58.444Z,7.44
2018-01-23T12:35:58.463Z,7.44
2018-01-23T12:36:58.423Z,7.44
2018-01-23T12:37:58.425Z,7.46
2018-01-23T12:38:58.891Z,7.45
2018-01-23T12:39:58.763Z,7.44
2018-01-23T12:40:58.792Z,7.45
2018-01-23T12:41:58.808Z,7.43
2018-01-23T12:42:58.802Z,7.44
2018-01-23T12:43:58.798Z,7.44
2018-01-23T12:44:58.744Z,7.45
2018-01-23T12:45:58.795Z,7.44
2018-01-23T12:46:58.821Z,7.43
2018-01-23T12:47:58.771Z,7.43
2018-01-23T12:48:58.803Z,7.44
2018-01-23T12:49:58.738Z,7.44
2018-01-23T12:50:58.791Z,7.45
2018-01-23T12:51:58.921Z,7.47
2018-01-23T12:52:58.792Z,7.47
2018-01-23T12:53:58.773Z,7.48
2018-01-23T12:54:58.761Z,7.49
2018-01-23T12:55:58.789Z,7.51
2018-01-23T12:56:58.810Z,7.52
2018-01-23T12:57:58.910Z,7.53
2018-01-23T12:58:59.192Z,7.54
2018-01-23T12:59:58.762Z,7.55
2018-01-23T13:00:58.787Z,7.56
2018-01-23T13:01:58.731Z,7.56
2018-01-23T13:02:58.780Z,7.56
2018-01-23T13:03:58.905Z,7.57
2018-01-23T13:04:58.785Z,7.58
2018-01-23T13:05:58.772Z,7.59
2018-01-23T13:06:58.764Z,7.59
2018-01-23T13:07:58.785Z,7.61
2018-01-23T13:08:58.927Z,7.63
2018-01-23T13:09:58.843Z,7.62
2018-01-23T13:10:58.900Z,7.62
2018-01-23T13:11:58.803Z,7.63
2018-01-23T13:12:58.816Z,7.64
2018-01-23T13:13:58.809Z,7.64
2018-01-23T13:14:58.820Z,7.65
2018-01-23T13:15:58.809Z,7.67
2018-01-23T13:16:58.779Z,7.68
2018-01-23T13:17:58.880Z,7.68
2018-01-23T13:18:58.822Z,7.69
2018-01-23T13:19:58.821Z,7.71
2018-01-23T13:20:58.816Z,7.71
2018-01-23T13:21:58.823Z,7.71
2018-01-23T13:22:58.872Z,7.71